createdAt,value
2018-07-19T00:01:17.827Z,2.07
2018-07-19T00:03:46.320Z,3.77
2018-07-19T00:06:14.789Z,2.47
2018-07-19T00:08:44.013Z,1.90
2018-07-19T00:11:13.473Z,2.43
2018-07-19T00:13:41.987Z,2.80
2018-07-19T00:16:10.778Z,2.60
2018-07-19T00:18:39.300Z,2.17
2018-07-19T00:21:07.870Z,2.50
2018-07-19T00:23:36.381Z,2.63
2018-07-19T00:26:04.876Z,2.37
2018-07-19T00:28:33.386Z,2.27
2018-07-19T00:31:01.875Z,2.53
2018-07-19T00:33:30.395Z,2.00
2018-07-19T00:35:58.943Z,2.80
2018-07-19T00:38:27.435Z,3.23
2018-07-19T00:40:55.888Z,2.27
2018-07-19T00:43:24.460Z,2.60
2018-07-19T00:45:52.958Z,2.30
2018-07-19T00:48:21.574Z,2.40
2018-07-19T00:50:50.037Z,1.90
2018-07-19T00:53:19.001Z,2.07
2018-07-19T00:55:47.463Z,2.27
2018-07-19T00:58:15.918Z,2.17
2018-07-19T01:00:44.442Z,2.30
2018-07-19T01:03:12.907Z,2.10
2018-07-19T01:05:41.402Z,2.20
2018-07-19T01:08:09.872Z,2.20
2018-07-19T01:10:38.397Z,2.37
2018-07-19T01:13:07.531Z,2.10
2018-07-19T01:15:36.156Z,2.37
2018-07-19T01:18:04.806Z,1.97
2018-07-19T01:20:33.333Z,2.10
2018-07-19T01:23:01.813Z,2.17
2018-07-19T01:25:30.314Z,2.20
2018-07-19T01:27:58.805Z,2.40
2018-07-19T01:30:27.289Z,2.10
2018-07-19T01:32:55.750Z,2.10
2018-07-19T01:35:24.237Z,2.80
2018-07-19T01:37:52.699Z,2.07
2018-07-19T01:40:21.230Z,2.20
2018-07-19T01:42:49.712Z,3.00
2018-07-19T01:45:18.181Z,2.00
2018-07-19T01:47:46.706Z,2.60
2018-07-19T01:50:15.315Z,2.40
2018-07-19T01:52:43.783Z,2.50
2018-07-19T01:55:12.393Z,1.80
2018-07-19T01:57:40.960Z,2.20
2018-07-19T02:00:09.686Z,2.27
2018-07-19T02:02:38.161Z,2.73
2018-07-19T02:05:07.422Z,2.50
2018-07-19T02:07:35.948Z,2.30
2018-07-19T02:10:04.975Z,1.93
2018-07-19T02:12:33.542Z,2.50
2018-07-19T02:15:02.005Z,2.90
2018-07-19T02:17:30.672Z,2.23
2018-07-19T02:19:59.146Z,1.83
2018-07-19T02:22:27.686Z,2.47
2018-07-19T02:24:56.147Z,2.67
2018-07-19T02:27:24.667Z,2.53
2018-07-19T02:29:53.182Z,2.73
2018-07-19T02:32:21.686Z,2.37
2018-07-19T02:34:50.165Z,2.23
2018-07-19T02:37:18.901Z,2.50
2018-07-19T02:39:47.380Z,2.40
2018-07-19T02:42:15.873Z,2.80
2018-07-19T02:44:45.173Z,3.00
2018-07-19T02:47:13.713Z,1.93
2018-07-19T02:49:42.177Z,2.70
2018-07-19T02:52:10.638Z,2.73
2018-07-19T02:54:39.141Z,2.60
2018-07-19T02:57:07.635Z,3.30
2018-07-19T02:59:36.117Z,3.50
2018-07-19T03:02:04.641Z,2.90
2018-07-19T03:04:33.081Z,3.37
2018-07-19T03:07:01.553Z,3.60
2018-07-19T03:09:30.067Z,4.73
2018-07-19T03:11:58.513Z,3.10
2018-07-19T03:14:27.013Z,3.40
2018-07-19T03:16:55.805Z,2.80
2018-07-19T03:19:24.301Z,2.80
2018-07-19T03:21:52.792Z,2.80
2018-07-19T03:24:21.291Z,2.57
2018-07-19T03:26:49.724Z,3.30
2018-07-19T03:29:18.253Z,3.07
2018-07-19T03:31:46.718Z,2.37
2018-07-19T03:34:15.403Z,3.43
2018-07-19T03:36:44.215Z,2.23
2018-07-19T03:39:13.176Z,3.20
2018-07-19T03:41:41.648Z,3.07
2018-07-19T03:44:10.108Z,3.10
2018-07-19T03:46:38.613Z,3.37
2018-07-19T03:49:07.128Z,3.03
2018-07-19T03:51:35.664Z,3.67
2018-07-19T03:54:03.915Z,2.80
2018-07-19T03:56:32.368Z,3.20
2018-07-19T03:59:00.876Z,3.27
2018-07-19T04:01:29.385Z,7.60
2018-07-19T04:03:57.852Z,3.87
2018-07-19T04:06:26.050Z,3.23
2018-07-19T04:08:54.554Z,3.03
2018-07-19T04:11:23.005Z,3.30
2018-07-19T04:13:51.708Z,2.77
2018-07-19T04:16:20.446Z,2.70
2018-07-19T04:18:48.966Z,2.53
2018-07-19T04:21:17.461Z,2.90
2018-07-19T04:23:46.245Z,3.47
2018-07-19T04:26:14.711Z,2.70
2018-07-19T04:28:43.237Z,3.17
2018-07-19T04:31:11.737Z,3.60
2018-07-19T04:33:40.206Z,3.20
2018-07-19T04:36:08.717Z,2.80
2018-07-19T04:38:37.184Z,2.67
2018-07-19T04:41:05.702Z,2.87
2018-07-19T04:43:34.181Z,3.47
2018-07-19T04:46:02.728Z,3.30
2018-07-19T04:48:31.186Z,3.57
2018-07-19T04:50:59.707Z,3.07
2018-07-19T04:53:28.216Z,2.57
2018-07-19T04:55:57.522Z,3.13
2018-07-19T04:58:26.004Z,3.00
2018-07-19T05:00:54.555Z,3.23
2018-07-19T05:03:23.009Z,2.80
2018-07-19T05:05:51.605Z,3.50
2018-07-19T05:08:20.059Z,2.87
2018-07-19T05:10:48.594Z,2.90
2018-07-19T05:13:17.144Z,3.47
2018-07-19T05:15:45.931Z,2.60
2018-07-19T05:18:14.418Z,3.27
2018-07-19T05:20:42.943Z,2.97
2018-07-19T05:23:11.455Z,3.43
2018-07-19T05:25:40.014Z,3.30
2018-07-19T05:28:08.534Z,3.00
2018-07-19T05:30:37.009Z,2.63
2018-07-19T05:33:05.594Z,4.50
2018-07-19T05:35:34.119Z,3.00
2018-07-19T05:38:02.620Z,3.10
2018-07-19T05:40:31.332Z,3.00
2018-07-19T05:42:59.771Z,3.20
2018-07-19T05:45:28.268Z,3.17
2018-07-19T05:47:57.362Z,3.47
2018-07-19T05:50:25.834Z,3.67
2018-07-19T05:52:54.379Z,3.70
2018-07-19T05:55:22.859Z,3.30
2018-07-19T05:57:51.438Z,2.50
2018-07-19T06:00:20.108Z,2.93
2018-07-19T06:02:48.988Z,3.67
2018-07-19T06:05:17.536Z,3.60
2018-07-19T06:07:46.067Z,3.57
2018-07-19T06:10:14.670Z,4.10
2018-07-19T06:12:43.202Z,3.70
2018-07-19T06:15:11.922Z,3.40
2018-07-19T06:17:40.451Z,3.00
2018-07-19T06:20:09.555Z,3.13
2018-07-19T06:22:38.101Z,4.10
2018-07-19T06:25:06.735Z,3.67
2018-07-19T06:27:35.851Z,3.90
2018-07-19T06:30:05.628Z,3.60
2018-07-19T06:32:34.138Z,3.20
2018-07-19T06:35:02.810Z,3.40
2018-07-19T06:37:31.337Z,3.23
2018-07-19T06:39:59.822Z,2.80
2018-07-19T06:42:28.363Z,3.77
2018-07-19T06:44:56.847Z,3.70
2018-07-19T06:47:25.368Z,4.10
2018-07-19T06:49:53.878Z,3.30
2018-07-19T06:52:22.425Z,4.67
2018-07-19T06:54:51.161Z,4.10
2018-07-19T06:57:19.384Z,4.30
2018-07-19T06:59:47.878Z,4.43
2018-07-19T07:02:16.927Z,4.00
2018-07-19T07:04:45.419Z,3.50
2018-07-19T07:07:15.948Z,4.50
2018-07-19T07:09:44.425Z,4.67
2018-07-19T07:12:12.979Z,3.70
2018-07-19T07:14:41.485Z,4.67
2018-07-19T07:17:10.029Z,3.83
2018-07-19T07:19:38.525Z,4.90
2018-07-19T07:22:07.106Z,3.83
2018-07-19T07:24:35.236Z,3.17
2018-07-19T07:27:03.779Z,4.83
2018-07-19T07:29:32.369Z,4.73
2018-07-19T07:32:00.983Z,5.33
2018-07-19T07:34:29.585Z,4.40
2018-07-19T07:36:58.118Z,4.57
2018-07-19T07:39:26.649Z,4.83
2018-07-19T07:41:55.173Z,5.20
2018-07-19T07:44:23.800Z,5.10
2018-07-19T07:46:52.323Z,5.17
2018-07-19T07:49:20.884Z,5.40
2018-07-19T07:51:49.364Z,5.37
2018-07-19T07:54:18.015Z,5.37
2018-07-19T07:56:46.577Z,5.03
2018-07-19T07:59:15.109Z,6.00
2018-07-19T08:01:43.572Z,4.70
2018-07-19T08:04:12.105Z,5.37
2018-07-19T08:06:40.693Z,5.43
2018-07-19T08:09:09.726Z,5.60
2018-07-19T08:11:38.909Z,6.10
2018-07-19T08:14:07.813Z,5.40
2018-07-19T08:16:36.329Z,6.10
2018-07-19T08:19:04.905Z,5.80
2018-07-19T08:21:33.585Z,6.63
2018-07-19T08:24:02.152Z,5.93
2018-07-19T08:26:30.649Z,5.80
2018-07-19T08:28:59.183Z,5.77
2018-07-19T08:31:27.717Z,5.93
2018-07-19T08:33:56.187Z,6.00
2018-07-19T08:36:24.816Z,6.37
2018-07-19T08:38:53.332Z,6.70
2018-07-19T08:41:21.887Z,6.37
2018-07-19T08:43:50.457Z,6.80
2018-07-19T08:46:19.805Z,6.80
2018-07-19T08:48:48.350Z,5.37
2018-07-19T08:51:16.909Z,6.07
2018-07-19T08:53:45.454Z,6.07
2018-07-19T08:56:13.991Z,7.07
2018-07-19T08:58:42.465Z,6.50
2018-07-19T09:01:11.049Z,6.10
2018-07-19T09:03:39.533Z,6.60
2018-07-19T09:06:08.082Z,6.57
2018-07-19T09:08:36.799Z,6.70
2018-07-19T09:11:05.544Z,5.90
2018-07-19T09:13:34.434Z,7.40
2018-07-19T09:16:02.944Z,7.30
2018-07-19T09:18:31.642Z,7.10
2018-07-19T09:21:00.263Z,9.33
2018-07-19T09:23:28.802Z,7.77
2018-07-19T09:25:57.318Z,7.60
2018-07-19T09:28:26.146Z,7.80
2018-07-19T09:30:54.838Z,7.47
2018-07-19T09:33:23.828Z,7.90
2018-07-19T09:35:52.417Z,9.13
2018-07-19T09:38:21.525Z,7.60
2018-07-19T09:40:50.079Z,7.30
2018-07-19T09:43:18.758Z,7.80
2018-07-19T09:45:48.002Z,8.60
2018-07-19T09:48:16.547Z,8.30
2018-07-19T09:50:45.215Z,8.23
2018-07-19T09:53:13.745Z,9.00
2018-07-19T09:55:42.225Z,8.37
2018-07-19T09:58:11.001Z,7.47
2018-07-19T10:00:45.034Z,5.80
2018-07-19T10:03:13.811Z,7.13
2018-07-19T10:05:42.338Z,8.70
2018-07-19T10:08:10.789Z,6.73
2018-07-19T10:10:39.534Z,6.97
2018-07-19T10:13:08.224Z,7.40
2018-07-19T10:15:36.787Z,7.43
2018-07-19T10:18:05.442Z,7.83
2018-07-19T10:20:34.028Z,7.17
2018-07-19T10:23:04.682Z,7.20
2018-07-19T10:25:33.248Z,7.37
2018-07-19T10:28:01.750Z,6.60
2018-07-19T10:30:30.470Z,7.53
2018-07-19T10:32:58.940Z,7.03
2018-07-19T10:35:27.495Z,8.10
2018-07-19T10:37:56.007Z,7.60
2018-07-19T10:40:24.545Z,7.93
2018-07-19T10:42:53.009Z,8.40
2018-07-19T10:45:21.534Z,7.27
2018-07-19T10:47:50.006Z,7.00
2018-07-19T10:50:18.558Z,7.10
2018-07-19T10:52:47.238Z,7.97
2018-07-19T10:55:15.791Z,7.87
2018-07-19T10:57:44.291Z,8.00
2018-07-19T11:00:13.395Z,7.47
2018-07-19T11:02:42.001Z,7.27
2018-07-19T11:05:10.489Z,8.23
2018-07-19T11:07:39.122Z,6.97
2018-07-19T11:10:07.701Z,7.80
2018-07-19T11:12:36.296Z,7.27
2018-07-19T11:15:05.151Z,6.73
2018-07-19T11:17:33.667Z,6.00
2018-07-19T11:20:02.171Z,6.80
2018-07-19T11:22:30.693Z,7.17
2018-07-19T11:24:59.186Z,6.97
2018-07-19T11:27:28.391Z,6.57
2018-07-19T11:29:56.890Z,6.53
2018-07-19T11:32:25.437Z,6.93
2018-07-19T11:34:53.922Z,6.80
2018-07-19T11:37:22.146Z,6.53
2018-07-19T11:39:50.629Z,6.73
2018-07-19T11:42:19.297Z,6.00
2018-07-19T11:44:47.791Z,5.73
2018-07-19T11:47:16.563Z,6.90
2018-07-19T11:49:45.220Z,6.23
2018-07-19T11:52:13.754Z,5.80
2018-07-19T11:54:42.211Z,6.17
2018-07-19T11:57:10.909Z,6.20
2018-07-19T11:59:39.354Z,5.97
2018-07-19T12:02:07.910Z,6.77
2018-07-19T12:04:36.411Z,6.20
2018-07-19T12:07:05.375Z,6.20
2018-07-19T12:09:33.883Z,5.70
2018-07-19T12:12:02.404Z,6.10
2018-07-19T12:14:31.129Z,5.90
2018-07-19T12:16:59.640Z,4.77
2018-07-19T12:19:28.161Z,6.53
2018-07-19T12:21:56.647Z,7.40
2018-07-19T12:24:25.159Z,6.00
2018-07-19T12:26:53.691Z,6.20
2018-07-19T12:29:22.393Z,6.70
2018-07-19T12:31:50.874Z,6.60
2018-07-19T12:34:19.365Z,6.10
2018-07-19T12:36:47.874Z,6.60
2018-07-19T12:39:16.421Z,6.13
2018-07-19T12:41:44.890Z,5.80
2018-07-19T12:44:13.425Z,6.83
2018-07-19T12:46:41.936Z,6.73
2018-07-19T12:49:10.425Z,6.07
2018-07-19T12:51:39.050Z,6.00
2018-07-19T12:54:07.584Z,5.40
2018-07-19T12:56:35.736Z,6.43
2018-07-19T12:59:04.245Z,5.93
2018-07-19T13:01:32.732Z,5.37
2018-07-19T13:04:01.297Z,5.23
2018-07-19T13:06:30.031Z,5.23
2018-07-19T13:08:58.537Z,5.90
2018-07-19T13:11:27.009Z,5.60
2018-07-19T13:13:55.956Z,6.60
2018-07-19T13:16:24.415Z,6.80
2018-07-19T13:18:52.890Z,5.70
2018-07-19T13:21:21.443Z,6.63
2018-07-19T13:23:49.913Z,5.30
2018-07-19T13:26:18.646Z,6.93
2018-07-19T13:28:46.883Z,6.80
2018-07-19T13:31:15.369Z,6.17
2018-07-19T13:33:43.914Z,5.90
2018-07-19T13:36:12.364Z,5.97
2018-07-19T13:38:40.916Z,7.20
2018-07-19T13:41:09.366Z,7.40
2018-07-19T13:43:37.908Z,7.90
2018-07-19T13:46:06.465Z,8.73
2018-07-19T13:48:35.011Z,8.47
2018-07-19T13:51:03.534Z,8.80
2018-07-19T13:53:43.297Z,9.23
2018-07-19T13:56:11.848Z,8.33
2018-07-19T13:58:40.349Z,9.13
2018-07-19T14:01:08.809Z,8.70
2018-07-19T14:03:37.313Z,9.50
2018-07-19T14:06:06.275Z,8.00
2018-07-19T14:08:34.855Z,7.20
2018-07-19T14:11:03.495Z,7.73
2018-07-19T14:13:32.126Z,8.80
2018-07-19T14:16:00.605Z,8.40
2018-07-19T14:18:29.190Z,8.43
2018-07-19T14:20:57.877Z,8.17
2018-07-19T14:23:26.593Z,7.80
2018-07-19T14:25:55.071Z,8.13
2018-07-19T14:28:23.584Z,7.63
2018-07-19T14:30:52.258Z,8.30
2018-07-19T14:33:20.789Z,6.97
2018-07-19T14:35:49.322Z,7.50
2018-07-19T14:38:17.810Z,7.73
2018-07-19T14:40:46.311Z,6.20
2018-07-19T14:43:14.815Z,7.60
2018-07-19T14:45:43.340Z,7.20
2018-07-19T14:48:12.110Z,5.83
2018-07-19T14:50:41.464Z,7.17
2018-07-19T14:53:09.990Z,7.27
2018-07-19T14:55:38.493Z,5.77
2018-07-19T14:58:06.928Z,6.00
2018-07-19T15:00:35.558Z,5.70
2018-07-19T15:03:04.026Z,6.83
2018-07-19T15:05:39.188Z,6.27
2018-07-19T15:08:07.630Z,6.60
2018-07-19T15:10:36.142Z,7.07
2018-07-19T15:13:04.626Z,5.40
2018-07-19T15:15:33.126Z,6.27
2018-07-19T15:18:01.677Z,6.10
2018-07-19T15:20:30.232Z,6.10
2018-07-19T15:22:58.729Z,6.07
2018-07-19T15:25:27.283Z,5.87
2018-07-19T15:27:55.770Z,6.10
2018-07-19T15:30:24.269Z,5.60
2018-07-19T15:32:52.906Z,5.70
2018-07-19T15:35:21.773Z,5.80
2018-07-19T15:37:50.486Z,6.33
2018-07-19T15:40:19.034Z,5.83
2018-07-19T15:42:47.533Z,6.07
2018-07-19T15:45:16.056Z,5.23
2018-07-19T15:47:44.672Z,5.30
2018-07-19T15:50:13.222Z,5.07
2018-07-19T15:52:41.705Z,5.50
2018-07-19T15:55:10.212Z,5.30
2018-07-19T15:57:38.710Z,4.93
2018-07-19T16:00:07.546Z,6.20
2018-07-19T16:02:36.016Z,5.50
2018-07-19T16:05:04.761Z,6.17
2018-07-19T16:07:33.311Z,6.07
2018-07-19T16:10:01.845Z,5.93
2018-07-19T16:12:30.354Z,6.80
2018-07-19T16:14:58.926Z,7.10
2018-07-19T16:17:27.485Z,7.00
2018-07-19T16:19:55.972Z,6.00
2018-07-19T16:22:24.638Z,6.90
2018-07-19T16:24:53.112Z,6.50
2018-07-19T16:27:21.598Z,6.00
2018-07-19T16:29:50.103Z,5.50
2018-07-19T16:32:18.790Z,6.50
2018-07-19T16:34:47.651Z,6.77
2018-07-19T16:37:16.155Z,6.87
2018-07-19T16:39:44.842Z,5.77
2018-07-19T16:42:14.030Z,6.07
2018-07-19T16:44:42.490Z,5.80
2018-07-19T16:47:11.117Z,6.50
2018-07-19T16:49:39.722Z,5.47
2018-07-19T16:52:08.197Z,5.70
2018-07-19T16:54:36.775Z,7.00
2018-07-19T16:57:05.953Z,6.87
2018-07-19T16:59:34.552Z,6.20
2018-07-19T17:02:03.066Z,6.40
2018-07-19T17:04:31.515Z,6.20
2018-07-19T17:07:00.256Z,6.60
2018-07-19T17:09:28.767Z,5.93
2018-07-19T17:11:57.752Z,7.10
2018-07-19T17:14:26.354Z,6.17
2018-07-19T17:16:54.878Z,6.23
2018-07-19T17:19:23.533Z,6.57
2018-07-19T17:21:52.275Z,6.57
2018-07-19T17:24:20.755Z,6.10
2018-07-19T17:26:49.311Z,5.80
2018-07-19T17:29:17.786Z,5.43
2018-07-19T17:31:46.278Z,6.13
2018-07-19T17:34:14.765Z,7.00
2018-07-19T17:36:43.243Z,6.30
2018-07-19T17:39:12.863Z,5.37
2018-07-19T17:41:42.804Z,5.47
2018-07-19T17:44:11.428Z,5.50
2018-07-19T17:46:39.999Z,5.87
2018-07-19T17:49:08.683Z,5.87
2018-07-19T17:51:37.270Z,5.23
2018-07-19T17:54:05.814Z,5.97
2018-07-19T17:56:34.371Z,5.87
2018-07-19T17:59:02.782Z,5.80
2018-07-19T18:01:31.416Z,5.63
2018-07-19T18:03:59.904Z,6.07
2018-07-19T18:06:28.418Z,6.20
2018-07-19T18:08:56.921Z,5.93
2018-07-19T18:11:26.358Z,5.87
2018-07-19T18:13:55.120Z,6.80
2018-07-19T18:16:23.598Z,6.43
2018-07-19T18:18:52.192Z,6.70
2018-07-19T18:21:20.668Z,6.47
2018-07-19T18:23:49.193Z,6.17
2018-07-19T18:26:17.687Z,7.23
2018-07-19T18:28:47.212Z,7.20
2018-07-19T18:31:15.844Z,6.20
2018-07-19T18:33:44.565Z,6.90
2018-07-19T18:36:13.093Z,6.30
2018-07-19T18:38:41.586Z,6.47
2018-07-19T18:41:10.077Z,5.70
2018-07-19T18:43:38.618Z,6.33
2018-07-19T18:46:07.055Z,5.90
2018-07-19T18:48:35.571Z,6.40
2018-07-19T18:51:04.546Z,6.37
2018-07-19T18:53:33.052Z,6.80
2018-07-19T18:56:01.543Z,6.40
2018-07-19T18:58:30.022Z,6.07
2018-07-19T19:00:58.541Z,6.17
2018-07-19T19:03:27.058Z,9.30
2018-07-19T19:05:55.536Z,10.17
2018-07-19T19:08:24.051Z,7.90
2018-07-19T19:10:52.571Z,6.03
2018-07-19T19:13:21.282Z,6.13
2018-07-19T19:15:49.690Z,6.70
2018-07-19T19:18:18.254Z,5.80
2018-07-19T19:20:46.818Z,6.10
2018-07-19T19:23:15.298Z,7.60
2018-07-19T19:25:43.990Z,7.90
2018-07-19T19:28:12.458Z,7.33
2018-07-19T19:30:41.002Z,7.27
2018-07-19T19:33:09.532Z,7.30
2018-07-19T19:35:38.758Z,7.00
2018-07-19T19:38:07.280Z,6.47
2018-07-19T19:40:35.836Z,6.27
2018-07-19T19:43:04.383Z,7.17
2018-07-19T19:45:33.943Z,6.57
2018-07-19T19:48:02.772Z,6.17
2018-07-19T19:50:31.277Z,7.03
2018-07-19T19:53:00.257Z,6.97
2018-07-19T19:55:28.780Z,6.33
2018-07-19T19:57:57.302Z,6.63
2018-07-19T20:00:25.762Z,7.03
2018-07-19T20:02:54.297Z,7.00
2018-07-19T20:05:23.013Z,7.00
2018-07-19T20:07:51.560Z,10.77
2018-07-19T20:10:20.143Z,6.73
2018-07-19T20:12:48.301Z,6.43
2018-07-19T20:15:16.876Z,6.33
2018-07-19T20:17:45.530Z,7.60
2018-07-19T20:20:14.204Z,7.00
2018-07-19T20:22:42.818Z,7.10
2018-07-19T20:25:11.458Z,6.90
2018-07-19T20:27:39.982Z,6.40
2018-07-19T20:30:08.646Z,7.00
2018-07-19T20:32:37.194Z,6.53
2018-07-19T20:35:05.722Z,6.67
2018-07-19T20:37:34.213Z,6.63
2018-07-19T20:40:02.776Z,6.67
2018-07-19T20:42:31.546Z,6.57
2018-07-19T20:45:00.207Z,6.50
2018-07-19T20:47:28.429Z,6.70
2018-07-19T20:49:57.913Z,6.80
2018-07-19T20:52:26.616Z,7.30
2018-07-19T20:54:56.196Z,6.40
2018-07-19T20:57:24.641Z,7.30
2018-07-19T20:59:53.165Z,6.50
2018-07-19T21:02:21.698Z,6.70
2018-07-19T21:04:50.252Z,7.50
2018-07-19T21:07:18.724Z,7.87
2018-07-19T21:09:47.314Z,6.90
2018-07-19T21:12:15.778Z,7.07
2018-07-19T21:14:44.399Z,7.60
2018-07-19T21:17:12.942Z,7.63
2018-07-19T21:19:42.163Z,8.43
2018-07-19T21:22:10.659Z,8.80
2018-07-19T21:24:39.166Z,8.43
2018-07-19T21:27:08.530Z,8.60
2018-07-19T21:29:37.042Z,8.30
2018-07-19T21:32:05.875Z,8.47
2018-07-19T21:34:34.363Z,8.03
2018-07-19T21:37:02.513Z,7.90
2018-07-19T21:39:30.832Z,7.90
2018-07-19T21:41:59.290Z,8.35
2018-07-19T21:44:27.771Z,7.70
2018-07-19T21:46:56.267Z,8.50
2018-07-19T21:49:24.758Z,7.97
2018-07-19T21:51:53.197Z,9.67
2018-07-19T21:54:21.397Z,9.60
2018-07-19T21:56:49.993Z,10.03
2018-07-19T21:59:18.680Z,8.57
2018-07-19T22:01:47.446Z,8.33
2018-07-19T22:04:16.840Z,7.93
2018-07-19T22:06:45.565Z,8.20
2018-07-19T22:09:14.254Z,8.57
2018-07-19T22:11:42.755Z,8.43
2018-07-19T22:14:11.214Z,8.17
2018-07-19T22:16:40.595Z,8.53
2018-07-19T22:19:09.167Z,8.47
2018-07-19T22:21:37.466Z,8.90
2018-07-19T22:24:06.025Z,8.97
2018-07-19T22:26:34.510Z,8.80
2018-07-19T22:29:02.974Z,8.60
2018-07-19T22:31:31.469Z,8.27
2018-07-19T22:33:59.913Z,8.80
2018-07-19T22:36:28.398Z,9.80
2018-07-19T22:38:57.344Z,8.60
2018-07-19T22:41:25.851Z,8.50
2018-07-19T22:43:54.339Z,8.63
2018-07-19T22:46:22.841Z,9.20
2018-07-19T22:48:55.130Z,8.67
2018-07-19T22:51:24.493Z,8.70
2018-07-19T22:53:52.985Z,9.60
2018-07-19T22:56:21.453Z,8.53
2018-07-19T22:58:50.532Z,8.20
2018-07-19T23:01:19.008Z,8.90
2018-07-19T23:03:47.558Z,9.67
2018-07-19T23:06:15.822Z,8.47
2018-07-19T23:08:44.330Z,8.10
2018-07-19T23:11:12.789Z,9.33
2018-07-19T23:13:41.525Z,9.37
2018-07-19T23:16:10.638Z,8.33
2018-07-19T23:18:39.084Z,9.10
2018-07-19T23:21:07.669Z,9.37
2018-07-19T23:23:36.164Z,10.03
2018-07-19T23:26:04.654Z,9.47
2018-07-19T23:28:33.160Z,9.10
2018-07-19T23:31:01.682Z,10.13
2018-07-19T23:33:30.498Z,8.53
2018-07-19T23:36:02.131Z,9.43
2018-07-19T23:39:36.998Z,9.13
2018-07-19T23:42:11.769Z,9.13
2018-07-19T23:44:47.162Z,9.30
2018-07-19T23:47:19.674Z,9.57
2018-07-19T23:49:48.122Z,8.47
2018-07-19T23:52:16.640Z,9.90
2018-07-19T23:54:45.351Z,9.87
2018-07-19T23:57:13.536Z,10.90
2018-07-19T23:59:42.078Z,9.73
